Time;durP1;ratioP1;P1;durP2;ratioP2;P2;SDS_P1;SDS_P2;PMS_P1;PMS_P2;Temp;Humidity;BMP_temperature;BMP_pressure;BME280_temperature;BME280_humidity;BME280_pressure;Samples;Min_cycle;Max_cycle;Signal;HPM_P1;HPM_P2
2022/06/10 00:00:56;;;;;;;0.52;0.20;;;;;;;19.24;31.84;98262.41;5021201;28;20036;-58
2022/06/10 00:03:25;;;;;;;0.65;0.30;;;;;;;19.12;31.10;98230.63;5009833;28;20025;-58
2022/06/10 00:05:56;;;;;;;2.07;0.40;;;;;;;19.52;32.19;98291.09;5018111;28;20063;-58
2022/06/10 00:08:24;;;;;;;1.05;0.20;;;;;;;19.27;30.96;98257.50;5011880;28;20068;-61
2022/06/10 00:10:51;;;;;;;1.58;0.20;;;;;;;19.46;31.56;98282.19;4999282;28;20578;-60
2022/06/10 00:13:18;;;;;;;1.30;0.50;;;;;;;19.47;31.07;98293.53;5008014;28;20049;-61
2022/06/10 00:15:44;;;;;;;1.00;0.25;;;;;;;19.49;32.61;98294.13;5016248;28;20041;-61
2022/06/10 00:18:09;;;;;;;1.73;0.28;;;;;;;19.52;31.84;98286.59;5013609;28;20388;-56
2022/06/10 00:20:35;;;;;;;2.33;0.30;;;;;;;19.51;31.54;98286.81;5018598;28;20025;-59
2022/06/10 00:23:01;;;;;;;1.65;0.20;;;;;;;19.45;30.19;98271.84;5016728;28;20040;-59
2022/06/10 00:25:27;;;;;;;0.77;0.20;;;;;;;19.30;30.23;98253.66;5017277;28;20576;-61
2022/06/10 00:27:52;;;;;;;1.08;0.30;;;;;;;19.47;30.71;98293.53;4996990;28;20036;-57
2022/06/10 00:30:22;;;;;;;1.40;0.20;;;;;;;19.48;32.64;98276.72;5009873;28;20137;-59
2022/06/10 00:32:47;;;;;;;2.78;0.40;;;;;;;19.19;33.12;98240.13;5015168;28;20072;-60
2022/06/10 00:35:14;;;;;;;0.47;0.20;;;;;;;19.47;34.91;98275.88;5013748;28;20120;-60
2022/06/10 00:37:39;;;;;;;1.05;0.20;;;;;;;19.48;34.60;98266.97;5014300;28;20033;-61
2022/06/10 00:40:07;;;;;;;2.15;0.40;;;;;;;19.61;35.59;98275.84;5019005;28;20044;-60
2022/06/10 00:42:35;;;;;;;0.80;0.20;;;;;;;19.15;32.90;98232.84;5017042;28;20339;-59
2022/06/10 00:45:01;;;;;;;0.60;0.28;;;;;;;19.39;34.84;98255.84;5006548;28;20092;-60
2022/06/10 00:47:38;;;;;;;1.95;0.30;;;;;;;19.65;35.19;98269.09;5016237;28;20022;-60
2022/06/10 00:50:16;;;;;;;1.05;0.22;;;;;;;19.57;34.22;98273.59;5011954;28;20032;-60
2022/06/10 00:52:46;;;;;;;1.30;0.32;;;;;;;19.61;35.81;98267.91;5013782;28;20029;-60
2022/06/10 00:55:11;;;;;;;1.45;0.20;;;;;;;19.84;36.35;98264.75;5014241;28;20053;-59
2022/06/10 00:57:40;;;;;;;1.20;0.30;;;;;;;19.93;36.99;98269.59;4997051;28;20060;-59
2022/06/10 01:00:06;;;;;;;2.17;0.38;;;;;;;19.86;36.23;98278.53;5012999;28;20033;-60
2022/06/10 01:02:33;;;;;;;1.23;0.35;;;;;;;19.78;35.71;98267.22;5012970;28;20041;-59
2022/06/10 01:05:00;;;;;;;5.40;0.50;;;;;;;19.82;36.61;98290.53;5009692;28;20033;-60
2022/06/10 01:07:35;;;;;;;2.15;0.32;;;;;;;19.82;35.86;98277.34;5018154;28;20025;-60
2022/06/10 01:10:02;;;;;;;0.20;0.20;;;;;;;19.57;34.45;98243.81;5021968;28;20531;-59
2022/06/10 01:12:47;;;;;;;2.38;0.30;;;;;;;19.60;37.70;98246.00;5017425;28;20030;-61
2022/06/10 01:15:33;;;;;;;0.95;0.30;;;;;;;19.76;35.89;98269.25;5009519;28;20038;-59
2022/06/10 01:18:13;;;;;;;0.38;0.20;;;;;;;19.82;36.04;98272.06;5025752;28;20037;-58
2022/06/10 01:20:51;;;;;;;0.75;0.20;;;;;;;19.58;37.97;98242.75;5017597;28;20029;-59
2022/06/10 01:23:50;;;;;;;1.60;0.38;;;;;;;19.67;37.29;98261.78;5012766;28;20516;-59
2022/06/10 01:27:48;;;;;;;1.67;0.40;;;;;;;19.66;34.96;98252.25;5006712;28;20025;-58
2022/06/10 01:29:34;;;;;;;1.77;0.43;;;;;;;19.81;36.44;98273.13;5016318;28;20380;-61
2022/06/10 01:32:04;;;;;;;2.40;0.60;;;;;;;19.50;34.43;98235.91;5012690;28;20041;-59
2022/06/10 01:34:47;;;;;;;0.90;0.30;;;;;;;19.45;35.91;98227.03;5011986;28;20037;-60
2022/06/10 01:37:29;;;;;;;1.13;0.30;;;;;;;19.65;33.77;98266.47;5020030;28;20088;-60
2022/06/10 01:40:21;;;;;;;1.02;0.30;;;;;;;19.73;35.71;98284.69;5010517;28;20500;-59
2022/06/10 01:43:35;;;;;;;1.55;0.30;;;;;;;19.64;35.59;98278.84;4982386;28;20115;-61
2022/06/10 01:46:14;;;;;;;2.05;0.40;;;;;;;19.61;36.27;98291.66;5022668;28;20037;-57
2022/06/10 01:48:53;;;;;;;2.67;0.40;;;;;;;19.68;35.77;98279.25;5016483;28;20049;-60
2022/06/10 01:51:28;;;;;;;2.13;0.43;;;;;;;19.65;36.08;98280.47;5009892;28;20408;-59
2022/06/10 01:54:02;;;;;;;1.23;0.30;;;;;;;19.69;33.65;98286.13;5011393;28;20022;-59
2022/06/10 01:56:39;;;;;;;3.92;0.30;;;;;;;19.63;36.54;98287.78;4995268;28;20035;-59
2022/06/10 01:59:08;;;;;;;1.67;0.40;;;;;;;19.39;36.33;98263.75;4993914;28;20045;-59
2022/06/10 02:01:40;;;;;;;1.05;0.30;;;;;;;19.66;36.55;98292.63;5013584;28;20108;-60
2022/06/10 02:04:26;;;;;;;1.58;0.40;;;;;;;19.62;34.33;98287.97;4996404;28;20033;-61
2022/06/10 02:06:56;;;;;;;1.35;0.50;;;;;;;19.39;34.37;98262.94;5010734;28;20068;-59
2022/06/10 02:09:48;;;;;;;1.23;0.30;;;;;;;19.59;34.35;98294.50;5008618;28;20034;-60
2022/06/10 02:12:21;;;;;;;0.60;0.20;;;;;;;19.65;34.64;98290.22;5018219;28;20103;-58
2022/06/10 02:15:45;;;;;;;0.82;0.20;;;;;;;19.66;32.79;98299.72;5009853;28;20026;-58
2022/06/10 02:18:37;;;;;;;1.05;0.30;;;;;;;19.57;35.82;98299.19;4961654;28;20046;-60
2022/06/10 02:21:08;;;;;;;2.03;0.43;;;;;;;19.44;33.87;98299.22;5026456;28;20056;-58
2022/06/10 02:23:39;;;;;;;1.98;0.40;;;;;;;19.51;34.95;98321.09;5012699;28;20579;-58
2022/06/10 02:26:05;;;;;;;1.27;0.30;;;;;;;19.40;32.74;98309.38;4993103;28;20084;-57
2022/06/10 02:28:36;;;;;;;1.48;0.30;;;;;;;19.42;34.59;98307.31;4998245;28;20117;-59
2022/06/10 02:31:16;;;;;;;0.52;0.20;;;;;;;19.41;35.28;98313.63;5017227;28;20079;-58
2022/06/10 02:33:42;;;;;;;2.47;0.20;;;;;;;19.29;31.28;98320.56;5013733;28;20025;-60
2022/06/10 02:36:18;;;;;;;0.93;0.20;;;;;;;19.29;32.14;98321.38;5015861;28;20638;-58
2022/06/10 02:38:55;;;;;;;0.32;0.20;;;;;;;19.29;35.07;98318.72;5011122;28;20034;-59
2022/06/10 02:42:00;;;;;;;2.35;0.43;;;;;;;19.22;31.85;98320.59;5006806;28;22532;-59
2022/06/10 02:44:49;;;;;;;1.08;0.30;;;;;;;19.09;31.54;98318.00;5001640;28;20793;-59
2022/06/10 02:47:23;;;;;;;1.48;0.40;;;;;;;19.02;32.68;98323.28;5011345;28;20042;-60
2022/06/10 02:49:49;;;;;;;1.55;0.30;;;;;;;18.77;31.60;98310.72;5018545;28;20049;-58
2022/06/10 02:52:16;;;;;;;1.88;0.20;;;;;;;18.91;33.37;98322.09;5007229;28;20034;-59
2022/06/10 02:54:43;;;;;;;1.95;0.40;;;;;;;18.97;31.33;98334.44;5014764;28;20122;-58
2022/06/10 02:57:18;;;;;;;0.98;0.20;;;;;;;18.75;31.80;98304.84;5003935;28;20039;-60
2022/06/10 03:02:49;;;;;;;1.63;0.35;;;;;;;18.95;30.18;98347.00;5009574;28;20053;-59
2022/06/10 03:05:32;;;;;;;0.68;0.20;;;;;;;18.92;31.37;98350.03;5011263;28;20095;-60
2022/06/10 03:08:17;;;;;;;0.98;0.30;;;;;;;18.83;32.94;98346.81;5017205;28;20017;-60
2022/06/10 03:11:20;;;;;;;1.23;0.30;;;;;;;18.80;31.13;98346.38;5010847;28;20377;-59
2022/06/10 03:14:22;;;;;;;0.77;0.30;;;;;;;18.79;31.42;98350.03;5012097;28;20033;-60
2022/06/10 03:17:04;;;;;;;0.52;0.20;;;;;;;18.75;31.34;98354.91;5009140;28;20063;-60
2022/06/10 03:19:35;;;;;;;1.23;0.22;;;;;;;18.78;31.70;98356.31;5014578;28;20041;-58
2022/06/10 03:22:06;;;;;;;1.60;0.32;;;;;;;18.75;31.58;98354.09;5019001;28;20632;-58
2022/06/10 03:24:45;;;;;;;0.50;0.28;;;;;;;18.69;31.72;98366.25;5014349;28;20033;-60
2022/06/10 03:27:15;;;;;;;0.75;0.20;;;;;;;18.50;32.51;98335.47;5015612;28;20030;-57
2022/06/10 03:30:06;;;;;;;1.48;0.38;;;;;;;18.63;31.91;98365.22;5015354;28;20026;-59
2022/06/10 03:32:43;;;;;;;0.47;0.20;;;;;;;18.73;31.96;98364.84;4993443;28;20039;-57
2022/06/10 03:35:29;;;;;;;1.02;0.20;;;;;;;18.50;34.29;98336.25;5017619;28;20539;-60
2022/06/10 03:37:55;;;;;;;0.80;0.30;;;;;;;18.46;33.33;98339.50;5010565;28;20059;-58
2022/06/10 03:40:24;;;;;;;0.73;0.22;;;;;;;18.68;32.32;98369.88;5017485;28;20128;-57
2022/06/10 03:42:54;;;;;;;1.15;0.20;;;;;;;18.70;32.25;98372.31;5013342;28;20064;-59
2022/06/10 03:45:27;;;;;;;0.68;0.28;;;;;;;18.60;35.58;98351.66;5019712;28;20115;-59
2022/06/10 03:47:52;;;;;;;2.28;0.20;;;;;;;18.75;33.50;98377.81;5012433;28;20017;-59
2022/06/10 03:50:22;;;;;;;0.98;0.30;;;;;;;18.74;32.31;98371.69;5020616;28;20060;-58
2022/06/10 03:52:47;;;;;;;0.85;0.30;;;;;;;18.64;31.38;98342.34;5019127;28;20017;-57
2022/06/10 03:55:18;;;;;;;0.95;0.30;;;;;;;18.90;32.13;98372.34;5012381;28;20649;-57
2022/06/10 03:57:44;;;;;;;0.52;0.20;;;;;;;18.86;31.27;98371.13;5019424;28;20032;-59
2022/06/10 04:00:14;;;;;;;0.35;0.17;;;;;;;18.96;31.64;98374.94;5014021;28;20072;-58
2022/06/10 04:02:39;;;;;;;1.20;0.32;;;;;;;18.91;31.43;98379.22;4992964;28;20045;-58
2022/06/10 04:05:05;;;;;;;0.52;0.28;;;;;;;18.90;31.02;98383.69;5007927;28;20461;-60
2022/06/10 04:07:31;;;;;;;0.65;0.20;;;;;;;18.90;31.26;98382.88;5012833;28;20029;-58
2022/06/10 04:09:56;;;;;;;0.82;0.30;;;;;;;18.67;31.59;98356.91;5029101;28;20103;-57
2022/06/10 04:12:23;;;;;;;0.73;0.20;;;;;;;18.55;32.32;98347.00;5010152;28;20030;-58
2022/06/10 04:14:48;;;;;;;1.23;0.32;;;;;;;18.74;32.17;98365.63;5016313;28;20025;-60
2022/06/10 04:17:13;;;;;;;1.27;0.22;;;;;;;18.83;32.41;98382.88;5008381;28;20022;-59
2022/06/10 04:19:39;;;;;;;0.20;0.17;;;;;;;18.89;31.99;98376.81;5017454;28;20399;-58
2022/06/10 04:22:04;;;;;;;0.73;0.30;;;;;;;18.82;31.55;98391.81;5015368;28;20079;-57
2022/06/10 04:24:30;;;;;;;1.17;0.20;;;;;;;18.95;30.77;98391.78;5008780;28;20049;-58
2022/06/10 04:26:56;;;;;;;0.70;0.20;;;;;;;18.96;33.28;98388.13;5019452;28;20025;-57
2022/06/10 04:29:23;;;;;;;1.58;0.38;;;;;;;18.84;32.15;98363.44;4994022;28;20038;-58
2022/06/10 04:31:49;;;;;;;1.65;0.20;;;;;;;19.01;31.20;98400.69;5012968;28;20645;-61
2022/06/10 04:34:15;;;;;;;0.65;0.28;;;;;;;18.99;32.27;98403.53;5011979;28;20029;-57
2022/06/10 04:36:41;;;;;;;0.93;0.30;;;;;;;18.85;33.78;98401.13;4918103;28;20045;-57
2022/06/10 04:39:07;;;;;;;2.47;0.32;;;;;;;18.82;33.51;98407.63;5019533;28;20029;-57
2022/06/10 04:41:32;;;;;;;0.80;0.20;;;;;;;18.82;33.96;98395.25;5014144;28;20037;-58
2022/06/10 04:43:58;;;;;;;0.77;0.30;;;;;;;18.89;32.14;98405.78;5008541;28;20034;-56
2022/06/10 04:46:30;;;;;;;1.48;0.30;;;;;;;18.61;32.48;98369.06;5012206;28;20080;-56
2022/06/10 04:48:56;;;;;;;0.38;0.20;;;;;;;18.91;32.13;98392.38;5017345;28;20086;-57
2022/06/10 04:51:21;;;;;;;0.95;0.30;;;;;;;18.93;32.42;98401.72;5012232;28;20479;-59
2022/06/10 04:53:47;;;;;;;1.15;0.40;;;;;;;18.81;34.96;98401.50;5022584;28;20504;-56
2022/06/10 04:56:13;;;;;;;1.00;0.20;;;;;;;18.78;34.69;98401.91;5009610;28;20531;-59
2022/06/10 04:58:39;;;;;;;1.58;0.35;;;;;;;18.68;33.93;98398.84;4999377;28;20483;-57
2022/06/10 05:01:05;;;;;;;0.98;0.30;;;;;;;18.59;33.81;98376.38;5011489;28;20025;-58
2022/06/10 05:03:31;;;;;;;0.95;0.30;;;;;;;18.74;33.66;98386.69;5012760;28;20033;-57
2022/06/10 05:05:57;;;;;;;1.45;0.32;;;;;;;18.79;33.45;98408.78;5014786;28;20059;-58
2022/06/10 05:08:22;;;;;;;0.95;0.30;;;;;;;18.78;34.54;98401.91;5007345;28;20035;-58
2022/06/10 05:10:47;;;;;;;1.35;0.60;;;;;;;18.85;33.81;98411.66;4963300;28;20507;-58
2022/06/10 05:13:16;;;;;;;0.32;0.20;;;;;;;18.82;34.29;98418.16;5007696;28;20054;-58
2022/06/10 05:15:42;;;;;;;0.20;0.20;;;;;;;18.76;33.87;98408.38;5011214;28;20021;-58
2022/06/10 05:18:08;;;;;;;2.90;0.22;;;;;;;18.62;32.88;98378.59;5025539;28;20041;-58
2022/06/10 05:20:38;;;;;;;0.40;0.20;;;;;;;18.68;33.50;98384.88;5011613;28;20474;-59
2022/06/10 05:23:04;;;;;;;0.57;0.20;;;;;;;18.95;32.44;98406.78;5009795;28;20338;-57
2022/06/10 05:25:30;;;;;;;0.90;0.20;;;;;;;18.93;32.51;98414.91;5013378;28;20029;-58
2022/06/10 05:27:56;;;;;;;1.90;0.30;;;;;;;19.03;33.22;98414.47;5018580;28;20026;-60
2022/06/10 05:30:23;;;;;;;0.98;0.20;;;;;;;18.82;33.10;98389.97;5013664;28;20088;-63
2022/06/10 05:32:49;;;;;;;0.60;0.30;;;;;;;18.95;34.18;98412.88;5013886;28;20025;-59
2022/06/10 05:35:14;;;;;;;1.45;0.20;;;;;;;18.85;35.38;98415.09;5014780;28;20036;-60
2022/06/10 05:37:41;;;;;;;1.08;0.30;;;;;;;18.80;35.00;98417.47;5008737;28;20052;-58
2022/06/10 05:40:07;;;;;;;0.98;0.28;;;;;;;18.81;34.89;98421.78;5022622;28;20034;-60
2022/06/10 05:42:32;;;;;;;2.13;0.32;;;;;;;18.63;36.68;98391.53;4999257;28;20033;-58
2022/06/10 05:44:58;;;;;;;1.15;0.40;;;;;;;18.87;34.22;98426.22;5008724;28;20026;-59
2022/06/10 05:47:26;;;;;;;1.05;0.30;;;;;;;18.68;34.57;98377.78;4997636;28;20026;-59
2022/06/10 05:49:55;;;;;;;1.58;0.30;;;;;;;18.89;34.22;98391.78;5015792;28;20021;-59
2022/06/10 05:52:24;;;;;;;3.20;0.40;;;;;;;19.04;33.76;98412.66;5013252;28;20030;-58
2022/06/10 05:54:51;;;;;;;1.27;0.30;;;;;;;19.07;34.53;98428.06;5013302;28;20072;-60
2022/06/10 05:57:17;;;;;;;0.30;0.20;;;;;;;19.13;34.20;98422.78;5011501;28;20484;-59
2022/06/10 05:59:43;;;;;;;1.40;0.40;;;;;;;19.15;34.00;98422.59;5014226;28;20084;-60
2022/06/10 06:02:10;;;;;;;1.17;0.30;;;;;;;19.08;35.54;98421.78;5016700;28;20072;-58
2022/06/10 06:04:36;;;;;;;0.35;0.30;;;;;;;19.10;34.61;98425.03;4946404;28;20032;-58
2022/06/10 06:07:01;;;;;;;0.43;0.20;;;;;;;19.05;34.91;98415.09;5014892;28;20021;-60
2022/06/10 06:09:26;;;;;;;0.68;0.20;;;;;;;19.07;34.89;98422.78;5015996;28;20075;-60
2022/06/10 06:11:56;;;;;;;1.58;0.35;;;;;;;18.88;35.26;98412.06;5015217;28;20640;-59
2022/06/10 06:14:22;;;;;;;0.98;0.30;;;;;;;19.08;34.98;98435.75;5026934;28;20610;-58
2022/06/10 06:16:54;;;;;;;1.10;0.43;;;;;;;19.11;35.66;98438.00;5007394;28;20022;-59
2022/06/10 06:19:19;;;;;;;1.15;0.30;;;;;;;19.14;35.46;98437.56;5027449;28;20029;-57
2022/06/10 06:21:45;;;;;;;0.77;0.40;;;;;;;18.98;34.66;98398.47;5016710;28;20112;-58
2022/06/10 06:24:10;;;;;;;2.03;0.38;;;;;;;19.16;35.15;98440.81;4992628;28;20816;-59
2022/06/10 06:26:36;;;;;;;0.40;0.30;;;;;;;19.28;34.24;98437.56;5014382;28;20424;-56
2022/06/10 06:29:01;;;;;;;0.15;0.10;;;;;;;19.24;34.37;98421.38;5016054;28;20068;-59
2022/06/10 06:31:26;;;;;;;1.88;0.35;;;;;;;19.37;34.06;98442.41;5017206;28;20079;-59
2022/06/10 06:33:52;;;;;;;1.73;0.32;;;;;;;19.47;34.23;98441.19;5003305;28;20479;-58
2022/06/10 06:36:21;;;;;;;1.27;0.20;;;;;;;19.47;34.22;98439.34;5014097;28;20688;-58
2022/06/10 06:38:47;;;;;;;1.25;0.40;;;;;;;19.40;35.58;98442.00;4996119;28;20452;-60
2022/06/10 06:41:12;;;;;;;0.20;0.10;;;;;;;19.36;34.16;98421.53;5011374;28;20437;-58
2022/06/10 06:43:38;;;;;;;0.95;0.28;;;;;;;19.31;33.57;98402.88;5014096;28;20095;-58
2022/06/10 06:46:03;;;;;;;1.52;0.43;;;;;;;19.57;33.72;98433.66;5010251;28;20029;-58
2022/06/10 06:48:29;;;;;;;1.83;0.30;;;;;;;19.59;33.08;98447.44;5007684;28;20025;-58
2022/06/10 06:50:54;;;;;;;1.80;0.20;;;;;;;19.70;33.21;98451.28;5019482;28;20108;-58
2022/06/10 06:53:20;;;;;;;0.73;0.20;;;;;;;19.64;33.50;98439.72;5016043;28;20025;-59
2022/06/10 06:55:46;;;;;;;0.40;0.20;;;;;;;19.28;33.49;98374.31;5017755;28;20044;-60
2022/06/10 06:58:16;;;;;;;0.50;0.20;;;;;;;19.77;33.15;98431.00;4993457;28;20029;-58
2022/06/10 07:00:41;;;;;;;0.73;0.20;;;;;;;19.67;33.03;98435.84;5012051;28;20029;-60
2022/06/10 07:03:07;;;;;;;1.38;0.30;;;;;;;19.75;32.23;98441.75;5023968;28;20520;-59
2022/06/10 07:05:32;;;;;;;1.45;0.30;;;;;;;19.94;32.15;98436.59;5016072;28;20112;-58
2022/06/10 07:07:58;;;;;;;0.10;0.10;;;;;;;19.96;32.00;98445.91;5003286;28;20040;-58
2022/06/10 07:10:24;;;;;;;0.75;0.20;;;;;;;19.90;33.09;98456.53;5006056;28;20648;-57
2022/06/10 07:12:50;;;;;;;7.82;0.60;;;;;;;19.82;33.45;98446.19;5015730;28;20053;-58
2022/06/10 07:15:17;;;;;;;1.67;0.35;;;;;;;19.78;33.35;98438.69;5016663;28;20060;-58
2022/06/10 07:17:43;;;;;;;2.00;0.40;;;;;;;19.85;32.33;98448.41;5019628;28;20025;-58
2022/06/10 07:20:10;;;;;;;0.55;0.20;;;;;;;19.91;32.57;98444.94;5018569;28;20596;-57
2022/06/10 07:22:36;;;;;;;1.95;0.35;;;;;;;19.86;33.23;98445.56;5017173;28;20025;-58
2022/06/10 07:25:02;;;;;;;2.05;0.38;;;;;;;19.95;33.20;98454.88;5017979;28;20040;-58
2022/06/10 07:27:27;;;;;;;2.55;0.40;;;;;;;19.88;33.75;98440.09;5019391;28;20040;-58
2022/06/10 07:29:52;;;;;;;1.95;0.30;;;;;;;20.00;32.53;98456.88;5022338;28;20067;-58
2022/06/10 07:32:18;;;;;;;1.80;0.40;;;;;;;20.12;32.54;98451.75;5015880;28;20516;-57
2022/06/10 07:34:43;;;;;;;1.27;0.50;;;;;;;20.11;32.76;98455.41;5009353;28;20041;-58
2022/06/10 07:37:09;;;;;;;2.05;0.60;;;;;;;20.14;33.21;98455.78;5021766;28;20049;-58
2022/06/10 07:39:35;;;;;;;0.75;0.32;;;;;;;20.33;34.43;98454.09;5019480;28;20083;-58
2022/06/10 07:42:01;;;;;;;0.93;0.30;;;;;;;21.12;31.09;98469.63;5019097;28;20064;-57
2022/06/10 07:44:35;;;;;;;1.33;0.30;;;;;;;21.55;30.90;98458.28;5013434;28;20468;-59
2022/06/10 07:47:04;;;;;;;1.23;0.40;;;;;;;21.86;30.14;98459.97;5012909;28;20029;-58
2022/06/10 07:49:29;;;;;;;3.73;0.80;;;;;;;21.99;30.00;98423.78;5015053;28;20037;-58
2022/06/10 07:51:55;;;;;;;1.15;0.35;;;;;;;22.40;29.49;98446.09;5016654;28;20605;-58
2022/06/10 07:54:21;;;;;;;2.00;0.52;;;;;;;22.58;29.79;98448.69;5016912;28;20042;-58
2022/06/10 07:56:46;;;;;;;1.88;0.32;;;;;;;22.74;28.74;98412.75;5017310;28;20104;-61
2022/06/10 07:59:14;;;;;;;1.42;0.38;;;;;;;23.20;28.90;98436.91;5016446;28;20060;-61
2022/06/10 08:01:39;;;;;;;1.85;0.38;;;;;;;23.18;28.92;98434.50;5013229;28;20057;-58
2022/06/10 08:04:08;;;;;;;0.63;0.20;;;;;;;23.23;29.14;98431.94;5014616;28;20456;-57
2022/06/10 08:06:35;;;;;;;1.50;0.45;;;;;;;23.60;28.43;98439.66;5011427;28;20109;-58
2022/06/10 08:09:01;;;;;;;0.80;0.25;;;;;;;23.69;28.29;98436.63;5009892;28;20053;-58
2022/06/10 08:11:26;;;;;;;0.93;0.22;;;;;;;24.16;27.46;98433.84;5019032;28;20540;-59
2022/06/10 08:13:52;;;;;;;0.43;0.20;;;;;;;24.34;27.64;98430.19;5014983;28;20029;-59
2022/06/10 08:16:22;;;;;;;0.57;0.20;;;;;;;24.04;27.59;98425.13;5018989;28;20021;-59
2022/06/10 08:18:48;;;;;;;1.15;0.20;;;;;;;24.01;26.80;98434.38;5016691;28;20091;-58
2022/06/10 08:23:57;;;;;;;1.67;0.30;;;;;;;24.53;26.45;98422.84;5009728;28;20045;-59
2022/06/10 08:26:25;;;;;;;0.75;0.22;;;;;;;24.78;26.53;98437.63;5014897;28;20030;-58
2022/06/10 08:28:51;;;;;;;2.22;0.40;;;;;;;24.57;26.11;98418.69;5000394;28;20115;-58
2022/06/10 08:31:16;;;;;;;1.17;0.30;;;;;;;24.89;27.09;98445.50;5012873;28;20057;-58
2022/06/10 08:33:42;;;;;;;0.73;0.20;;;;;;;25.27;26.83;98446.63;5018078;28;20068;-58
2022/06/10 08:36:09;;;;;;;1.80;0.20;;;;;;;25.40;27.28;98450.00;4995761;28;20037;-59
2022/06/10 08:38:35;;;;;;;1.17;0.25;;;;;;;25.32;27.00;98452.03;5011063;28;20132;-58
2022/06/10 08:41:13;;;;;;;0.57;0.20;;;;;;;25.01;27.77;98447.25;5020270;28;20096;-58
2022/06/10 08:47:25;;;;;;;0.63;0.20;;;;;;;25.47;27.45;98448.78;5011696;28;20071;-58
2022/06/10 08:49:50;;;;;;;0.75;0.20;;;;;;;25.81;26.59;98435.38;5034567;28;20618;-58
2022/06/10 08:52:38;;;;;;;2.35;0.35;;;;;;;26.02;26.80;98456.94;5018876;28;20083;-58
2022/06/10 08:55:29;;;;;;;2.97;0.70;;;;;;;25.90;26.52;98459.69;5014938;28;20026;-58
2022/06/10 08:57:56;;;;;;;2.95;0.90;;;;;;;26.43;26.11;98462.69;5018459;28;20045;-58
2022/06/10 09:00:29;;;;;;;0.95;0.30;;;;;;;26.22;24.99;98459.81;5007698;28;20064;-58
2022/06/10 09:03:19;;;;;;;0.80;0.25;;;;;;;26.65;25.74;98463.47;5001921;28;20469;-59
2022/06/10 09:05:54;;;;;;;1.77;0.45;;;;;;;27.13;25.37;98460.91;5018875;28;20539;-57
2022/06/10 09:08:28;;;;;;;0.70;0.20;;;;;;;26.74;25.29;98468.34;5012968;28;20033;-59
2022/06/10 09:11:26;;;;;;;0.25;0.17;;;;;;;27.53;24.17;98469.47;4992523;28;20037;-58
2022/06/10 09:14:16;;;;;;;0.98;0.22;;;;;;;27.89;22.10;98466.94;5011621;28;20017;-60
2022/06/10 09:17:01;;;;;;;0.40;0.17;;;;;;;28.02;22.04;98469.19;5011495;28;20063;-60
2022/06/10 09:19:29;;;;;;;0.65;0.10;;;;;;;27.34;22.62;98450.41;5012718;28;20049;-59
2022/06/10 09:22:08;;;;;;;2.20;0.32;;;;;;;28.00;23.08;98468.63;5018927;28;20025;-58
2022/06/10 09:25:12;;;;;;;3.27;0.30;;;;;;;28.56;22.24;98468.78;5009402;28;20029;-58
2022/06/10 09:27:44;;;;;;;0.35;0.15;;;;;;;28.83;20.27;98472.28;5011666;28;20371;-61
2022/06/10 09:30:46;;;;;;;0.70;0.20;;;;;;;29.03;22.08;98477.63;5010973;28;20033;-61
2022/06/10 09:33:17;;;;;;;2.13;0.32;;;;;;;29.10;23.22;98477.38;5005547;28;20022;-56
2022/06/10 09:36:00;;;;;;;0.50;0.20;;;;;;;29.18;21.47;98476.03;5008139;28;20036;-59
2022/06/10 09:38:50;;;;;;;1.23;0.30;;;;;;;29.34;22.12;98480.31;5019880;28;20033;-59
2022/06/10 09:41:22;;;;;;;1.02;0.20;;;;;;;28.92;22.08;98476.03;5000107;28;20034;-61
2022/06/10 09:43:59;;;;;;;1.52;0.30;;;;;;;29.06;21.37;98478.94;5011814;28;20044;-60
2022/06/10 09:46:42;;;;;;;1.25;0.30;;;;;;;28.68;23.15;98475.78;5011518;28;20025;-59
2022/06/10 09:49:23;;;;;;;1.30;0.22;;;;;;;28.71;22.17;98472.53;5015156;28;20094;-59
2022/06/10 09:51:58;;;;;;;1.17;0.20;;;;;;;28.94;22.94;98471.22;5015387;28;20264;-58
2022/06/10 09:54:36;;;;;;;1.08;0.30;;;;;;;28.04;23.56;98480.41;5014963;28;20026;-58
2022/06/10 09:57:25;;;;;;;0.90;0.30;;;;;;;27.72;21.14;98483.97;5018035;28;20040;-57
2022/06/10 10:00:01;;;;;;;1.13;0.35;;;;;;;26.96;22.40;98482.41;5009928;28;20029;-60
2022/06/10 10:03:01;;;;;;;1.45;0.30;;;;;;;26.53;23.32;98489.47;4991767;28;20041;-58
2022/06/10 10:05:33;;;;;;;1.42;0.20;;;;;;;26.47;24.65;98495.81;5011887;28;20084;-60
2022/06/10 10:08:22;;;;;;;0.88;0.13;;;;;;;26.76;25.60;98475.03;5008409;28;20045;-58
2022/06/10 10:10:54;;;;;;;1.48;0.17;;;;;;;26.11;25.67;98484.75;5008491;28;20033;-59
2022/06/10 10:13:24;;;;;;;4.75;1.02;;;;;;;25.71;26.13;98454.69;5008089;28;20084;-58
2022/06/10 10:16:05;;;;;;;0.95;0.25;;;;;;;25.71;25.59;98475.97;5007473;28;20722;-59
2022/06/10 10:18:39;;;;;;;2.05;0.43;;;;;;;25.60;25.75;98484.09;5010661;28;20017;-58
2022/06/10 10:21:20;;;;;;;0.60;0.20;;;;;;;25.35;25.15;98474.69;5009847;28;20782;-58
2022/06/10 10:23:54;;;;;;;0.32;0.20;;;;;;;25.02;25.17;98449.69;5013867;28;20028;-60
2022/06/10 10:26:39;;;;;;;1.27;0.20;;;;;;;25.19;26.10;98476.31;5014453;28;20825;-58
2022/06/10 10:29:11;;;;;;;2.55;0.32;;;;;;;25.24;28.52;98470.25;5020780;28;20033;-60
2022/06/10 10:32:27;;;;;;;1.10;0.55;;;;;;;25.30;26.50;98475.44;5011978;28;20116;-58
2022/06/10 10:34:58;;;;;;;0.93;0.20;;;;;;;25.12;25.53;98470.34;5002495;28;20164;-58
2022/06/10 10:37:30;;;;;;;0.90;0.30;;;;;;;25.23;27.38;98472.09;5011683;28;20038;-59
2022/06/10 10:40:03;;;;;;;0.65;0.20;;;;;;;25.13;28.40;98445.34;4994542;28;20029;-58
2022/06/10 10:42:41;;;;;;;1.23;0.28;;;;;;;24.98;28.40;98434.47;5014872;28;20065;-58
2022/06/10 10:45:23;;;;;;;1.17;0.22;;;;;;;25.30;26.88;98458.66;5012155;28;20052;-58
2022/06/10 10:47:51;;;;;;;1.63;0.43;;;;;;;25.27;27.41;98459.16;5022381;28;20113;-59
2022/06/10 10:50:20;;;;;;;0.95;0.22;;;;;;;25.32;26.45;98461.88;5028956;28;20033;-59
2022/06/10 10:52:46;;;;;;;0.68;0.20;;;;;;;25.36;27.45;98470.97;5008127;28;20676;-59
2022/06/10 10:55:11;;;;;;;0.50;0.20;;;;;;;25.47;26.58;98467.41;5016947;28;20029;-59
2022/06/10 10:57:39;;;;;;;0.45;0.10;;;;;;;25.57;27.21;98471.25;5012518;28;20041;-58
2022/06/10 11:00:05;;;;;;;0.75;0.20;;;;;;;25.48;28.19;98474.34;5014848;28;20025;-59
2022/06/10 11:02:37;;;;;;;0.50;0.20;;;;;;;25.15;28.08;98448.56;5012973;28;20045;-58
2022/06/10 11:05:24;;;;;;;0.40;0.20;;;;;;;25.44;27.27;98472.41;5018582;28;20436;-59
2022/06/10 11:08:08;;;;;;;0.55;0.17;;;;;;;25.40;26.35;98474.75;5017600;28;20052;-64
2022/06/10 11:10:40;;;;;;;1.33;0.20;;;;;;;25.56;26.94;98472.31;5017004;28;20036;-65
2022/06/10 11:13:07;;;;;;;0.57;0.20;;;;;;;25.58;26.75;98470.22;5016180;28;20144;-64
2022/06/10 11:15:34;;;;;;;0.73;0.20;;;;;;;25.57;30.08;98464.06;5019070;28;20055;-61
2022/06/10 11:18:00;;;;;;;1.40;0.30;;;;;;;25.47;30.65;98470.06;5014589;28;20041;-62
2022/06/10 11:20:34;;;;;;;0.98;0.30;;;;;;;25.43;32.31;98468.97;5019600;28;20829;-62
2022/06/10 11:23:21;;;;;;;1.35;0.30;;;;;;;25.63;27.90;98464.97;5036141;28;20025;-63
2022/06/10 11:26:02;;;;;;;0.43;0.20;;;;;;;25.49;26.50;98467.97;5015771;28;20017;-61
2022/06/10 11:28:35;;;;;;;1.63;0.40;;;;;;;25.46;29.58;98473.81;4998069;28;20033;-62
2022/06/10 11:31:00;;;;;;;6.15;0.30;;;;;;;25.50;26.23;98469.59;5020586;28;20018;-60
2022/06/10 11:33:32;;;;;;;1.42;1.00;;;;;;;25.52;30.83;98464.81;5021363;28;20613;-61
2022/06/10 11:36:04;;;;;;;0.63;0.10;;;;;;;25.37;30.46;98434.53;5013913;28;20477;-63
2022/06/10 11:38:31;;;;;;;1.33;0.30;;;;;;;25.42;28.82;98462.00;5017543;28;20034;-63
2022/06/10 11:40:59;;;;;;;1.27;0.30;;;;;;;25.54;29.42;98461.91;5016980;28;20029;-61
2022/06/10 11:43:34;;;;;;;0.85;0.20;;;;;;;25.48;29.57;98469.03;5016403;28;20112;-61
2022/06/10 11:46:01;;;;;;;1.08;0.40;;;;;;;25.51;27.13;98463.19;5015326;28;20036;-61
2022/06/10 11:48:30;;;;;;;1.05;0.32;;;;;;;25.64;29.31;98458.56;5010897;28;20030;-61
2022/06/10 11:51:02;;;;;;;0.82;0.30;;;;;;;25.73;31.89;98465.09;5021303;28;20060;-63
2022/06/10 11:53:47;;;;;;;0.17;0.17;;;;;;;25.52;27.94;98454.19;5018141;28;20033;-62
2022/06/10 11:59:54;;;;;;;1.25;0.30;;;;;;;25.91;26.70;98445.34;5020943;28;20078;-61
2022/06/10 12:02:34;;;;;;;0.85;0.30;;;;;;;25.62;26.33;98408.25;5018420;28;20037;-63
2022/06/10 12:05:08;;;;;;;0.98;0.30;;;;;;;25.77;26.10;98438.75;5019000;28;20689;-61
2022/06/10 12:07:36;;;;;;;0.93;0.30;;;;;;;25.77;27.67;98438.75;5018193;28;20665;-64
2022/06/10 12:10:04;;;;;;;0.80;0.28;;;;;;;25.69;25.37;98440.81;5014700;28;20030;-63